Flight Track Log - Related Links

Times and Time Zones

All times are in EDT time to prevent confusion due to time zone crossing. See the N75ZM flight status page for this flight to view local times or setup timezone preferences in your user account.

Time Position Orientation Groundspeed Altitude Reporting Facility
EDT Latitude Longitude Course Direction KTS MPH feet Rate Location/Type
Thu 10:17:02 AM 33.9000 -84.3000 15° North 124 143 2,400  Level Atlanta TRACON
Thu 10:18:02 AM 33.9500 -84.2833 15° North 144 166 3,200 1,000 Climbing Atlanta TRACON
Thu 10:19:02 AM 33.9667 -84.2500 59° Northeast 127 146 4,400 1,050 Climbing Atlanta TRACON
Thu 10:20:02 AM 33.9667 -84.2167 90° East 133 153 5,300 905 Climbing Atlanta TRACON
Thu 10:21:08 AM 33.9667 -84.1667 90° East 141 162 6,300 850 Climbing Atlanta TRACON
Thu 10:22:02 AM 33.9667 -84.1167 90° East 137 158 7,000 421 Climbing Atlanta TRACON
Thu 10:23:02 AM 33.9667 -84.0667 90° East 164 189 7,100 48 Climbing Atlanta TRACON
Thu 10:24:08 AM 33.9667 -84.0000 90° East 174 200 7,100  Level Atlanta TRACON
Thu 10:25:08 AM 33.9667 -83.9500 90° East 170 196 7,100  Level Atlanta TRACON
Thu 10:26:02 AM 33.9667 -83.8833 90° East 172 198 7,100  Level Atlanta TRACON
Thu 10:27:08 AM 33.9667 -83.8333 90° East 172 198 7,100  Level Atlanta TRACON
Thu 10:28:08 AM 33.9667 -83.7667 90° East 173 199 7,100  Level Atlanta TRACON
Thu 10:29:08 AM 33.9667 -83.7167 90° East 174 200 7,100  Level Atlanta TRACON
Thu 10:30:02 AM 33.9667 -83.6667 90° East 174 200 7,100  Level Atlanta TRACON
Thu 10:31:02 AM 33.9500 -83.6000 107° East 175 201 7,100  Level Atlanta TRACON
Thu 10:32:08 AM 33.9500 -83.5333 90° East 177 204 7,100  Level Atlanta TRACON
Thu 10:33:08 AM 33.9500 -83.4833 90° East 175 201 7,100  Level Atlanta TRACON
Thu 10:34:08 AM 33.9500 -83.4167 90° East 177 204 7,100  Level Atlanta TRACON
Thu 10:35:08 AM 33.9500 -83.3667 90° East 176 203 7,100  Level Atlanta TRACON
Thu 10:36:03 AM 33.9500 -83.3167 90° East 177 204 7,100  Level Atlanta TRACON
Thu 10:37:08 AM 33.9333 -83.2500 107° East 177 204 7,100  Level Atlanta TRACON
Thu 10:38:08 AM 33.9167 -83.1833 107° East 178 205 7,100  Level Atlanta TRACON
Thu 10:39:03 AM 33.9167 -83.1333 90° East 177 204 7,100  Level Atlanta TRACON
Thu 10:40:03 AM 33.9000 -83.0833 112° Southeast 176 203 7,100  Level Atlanta TRACON
Thu 10:41:03 AM 33.8833 -83.0167 107° East 177 204 7,100  Level Atlanta TRACON
Thu 10:43:00 AM 33.8502 -82.9008 107° East  Level FlightAware
Thu 10:50:00 AM 33.7648 -82.4739 103° East  Level FlightAware
Thu 10:51:00 AM 33.7527 -82.4129 103° East  Level FlightAware
Thu 10:52:00 AM 33.7405 -82.3518 103° East  Level FlightAware
Thu 10:53:00 AM 33.7283 -82.2908 104° East  Level FlightAware
Thu 10:54:00 AM 33.7160 -82.2297 104° East  Level FlightAware
Thu 10:55:00 AM 33.7038 -82.1687 104° East  Level FlightAware
Thu 10:56:00 AM 33.6723 -82.1220 140° Southeast  Level FlightAware
Thu 10:57:00 AM 33.6323 -82.0817 140° Southeast  Level FlightAware
Thu 10:58:00 AM 33.5923 -82.0414 140° Southeast  Level FlightAware
Thu 10:59:00 AM 33.5523 -82.0011 140° Southeast  Level FlightAware
Thu 11:00:00 AM 33.5123 -81.9609 140° Southeast  Level FlightAware
Thu 11:01:00 AM 33.4723 -81.9207 140° Southeast  Level FlightAware
Thu 11:02:00 AM 33.4322 -81.8806 140° Southeast  Level FlightAware
Thu 11:03:00 AM 33.3922 -81.8405 140° Southeast  Level FlightAware
Thu 11:04:00 AM 33.3521 -81.8004 140° Southeast  Level FlightAware
Thu 11:05:00 AM 33.3120 -81.7604 140° Southeast  Level FlightAware
Thu 11:06:00 AM 33.2719 -81.7204 140° Southeast  Level FlightAware
Thu 11:07:00 AM 33.2318 -81.6804 140° Southeast  Level FlightAware
Thu 11:08:00 AM 33.1917 -81.6405 140° Southeast  Level FlightAware
Thu 11:09:00 AM 33.1516 -81.6006 140° Southeast  Level FlightAware
Thu 11:09:22 AM 33.2106 -81.6586 140° Southeast 179 206 7,100  Level Jacksonville Center
Thu 11:10:00 AM 33.1114 -81.5607 140° Southeast  Level FlightAware
Thu 11:10:22 AM 33.1683 -81.6244 146° Southeast 192 221 7,100  Level Jacksonville Center
Thu 11:11:00 AM 33.0713 -81.5209 140° Southeast  Level FlightAware
Thu 11:11:22 AM 33.1306 -81.5878 141° Southeast 187 215 7,100  Level Jacksonville Center
Thu 11:12:00 AM 33.0311 -81.4811 140° Southeast  Level FlightAware
Thu 11:12:22 AM 33.0925 -81.5461 137° Southeast 187 215 7,100  Level Jacksonville Center
Thu 11:13:00 AM 32.9912 -81.4409 140° Southeast  Level FlightAware
Thu 11:13:22 AM 33.0544 -81.5097 141° Southeast 187 215 7,100  Level Jacksonville Center
Thu 11:14:00 AM 32.9513 -81.4009 140° Southeast  Level FlightAware
Thu 11:14:22 AM 33.0144 -81.4706 141° Southeast 187 215 7,100  Level Jacksonville Center
Thu 11:15:22 AM 32.9744 -81.4317 141° Southeast 187 215 7,100  Level Jacksonville Center
Thu 11:16:22 AM 32.9447 -81.4000 138° Southeast 187 215 7,100  Level Jacksonville Center
Thu 11:17:22 AM 32.8961 -81.3561 143° Southeast 187 215 7,100  Level Jacksonville Center
Thu 11:18:22 AM 32.8603 -81.3172 138° Southeast 187 215 7,100  Level Jacksonville Center
Thu 11:19:22 AM 32.8200 -81.2783 141° Southeast 187 215 7,100  Level Jacksonville Center
Thu 11:20:22 AM 32.7819 -81.2419 141° Southeast 187 215 7,100  Level Jacksonville Center
Thu 11:21:22 AM 32.7419 -81.2033 141° Southeast 187 215 7,100  Level Jacksonville Center
Thu 11:22:22 AM 32.7039 -81.1644 139° Southeast 187 215 7,100  Level Jacksonville Center
Thu 11:23:22 AM 32.6614 -81.1258 143° Southeast 181 208 7,100  Level Jacksonville Center
Thu 11:24:22 AM 32.6175 -81.1192 173° South 175 201 7,100 -150 Level Jacksonville Center
Thu 11:25:22 AM 32.5631 -81.1103 172° South 180 207 6,800 -400 Descending Jacksonville Center
Thu 11:26:22 AM 32.5150 -81.1039 174° South 185 213 6,300 -500 Descending Jacksonville Center
Thu 11:27:22 AM 32.4586 -81.0953 173° South 185 213 5,800 -500 Descending Jacksonville Center
Thu 11:28:22 AM 32.4164 -81.0739 157° South 180 207 5,300 -500 Descending Jacksonville Center
Thu 11:29:22 AM 32.3722 -81.0503 156° South 174 200 4,800 -550 Descending Jacksonville Center
Thu 11:30:22 AM 32.3239 -81.0267 158° South 174 200 4,200 -600 Descending Jacksonville Center
Thu 11:32:00 AM 32.2983 -80.9418 106° East  Level Estimated
Thu 11:39:00 AM 32.2244 -80.6975 90° East  Level Estimated
Thu 11:40:00 AM 32.2244 -80.6975 90° East  Level Estimated
Thu 11:41:00 AM 32.2244 -80.6975 90° East  Level Estimated
Thu 11:42:00 AM 32.2244 -80.6975 90° East  Level Estimated
Thu 11:43:00 AM 32.2244 -80.6975 90° East  Level Estimated
Thu 11:44:00 AM 32.2244 -80.6975 90° East  Level Estimated

Login

Don't have an account? Register now (free) for customized features, flight alerts, and more!